Terminal Aerodrome Forecast
Issued by NWS

Home | Current Version | Previous Version | Graphics & Text | Print | Product List | Glossary Off
Versions: 1 2 3 4 5 6 7 8 9 10 11 12 13 14 15 16 17 18 19 20

046
FTUS41 KCLE 201741 CCA
TAFFDY
TAF COR
KFDY 201741Z 2018/2118 21008KT 6SM BR OVC005
      TEMPO 2018/2022 2SM BR OVC003
     FM202200 24005KT 5SM BR OVC008
     FM210200 18005KT 5SM BR OVC012
      TEMPO 2106/2110 2SM BR OVC006
     FM211000 14004KT 1SM BR OVC006
     FM211500 18007KT 5SM BR OVC012=

USA.gov is the U.S. government's official web portal to all federal, state and local government web resources and services.